Time;durP1;ratioP1;P1;durP2;ratioP2;P2;SDS_P1;SDS_P2;PMS_P1;PMS_P2;Temp;Humidity;BMP_temperature;BMP_pressure;BME280_temperature;BME280_humidity;BME280_pressure;Samples;Min_cycle;Max_cycle;Signal;HPM_P1;HPM_P2
2023/12/23 00:00:55;;;;;;;0.00;0.00;;;;;;;2.37;100.00;95827.81;6125692;28;20235;-42
2023/12/23 00:03:58;;;;;;;0.33;0.10;;;;;;;2.38;100.00;95832.03;6123188;28;20206;-43
2023/12/23 00:07:00;;;;;;;0.10;0.10;;;;;;;2.42;100.00;95820.81;6124501;28;20213;-42
2023/12/23 00:10:03;;;;;;;0.20;0.10;;;;;;;2.38;100.00;95832.03;6128557;28;20678;-43
2023/12/23 00:13:06;;;;;;;0.10;0.10;;;;;;;2.25;100.00;95844.41;6130768;29;20291;-42
2023/12/23 00:16:08;;;;;;;0.10;0.10;;;;;;;2.17;100.00;95851.84;6132240;28;20753;-42
2023/12/23 00:19:11;;;;;;;0.20;0.20;;;;;;;2.22;100.00;95859.84;6130643;28;20217;-42
2023/12/23 00:22:13;;;;;;;0.20;0.10;;;;;;;2.06;100.00;95872.66;6132257;28;20694;-43
2023/12/23 00:25:15;;;;;;;0.10;0.10;;;;;;;1.90;100.00;95875.22;6136093;28;20686;-44
2023/12/23 00:28:17;;;;;;;0.57;0.23;;;;;;;1.85;100.00;95875.91;6134749;28;20209;-45
2023/12/23 00:31:19;;;;;;;0.17;0.17;;;;;;;1.96;100.00;95876.91;6122250;28;20690;-43
2023/12/23 00:34:21;;;;;;;0.20;0.20;;;;;;;1.87;100.00;95889.59;6118511;28;20201;-43
2023/12/23 00:37:23;;;;;;;1.27;0.30;;;;;;;1.71;100.00;95872.72;6128721;28;20210;-42
2023/12/23 00:40:25;;;;;;;0.13;0.13;;;;;;;1.79;100.00;95871.59;6138350;28;20212;-42
2023/12/23 00:43:27;;;;;;;0.50;0.23;;;;;;;1.64;100.00;95866.81;6125584;29;20200;-42
2023/12/23 00:46:29;;;;;;;1.10;0.30;;;;;;;1.53;100.00;95871.03;6124909;29;20230;-42
2023/12/23 00:49:31;;;;;;;1.70;0.30;;;;;;;1.48;100.00;95886.69;6124491;29;20213;-42
2023/12/23 00:52:34;;;;;;;0.20;0.20;;;;;;;1.53;100.00;95889.41;6123170;28;20998;-42
2023/12/23 00:55:36;;;;;;;0.20;0.20;;;;;;;1.39;100.00;95893.28;6136296;28;20218;-42
2023/12/23 00:58:39;;;;;;;0.20;0.20;;;;;;;1.28;100.00;95921.13;6132463;28;20347;-41
2023/12/23 01:01:43;;;;;;;0.53;0.20;;;;;;;1.48;100.00;95912.13;6139388;28;20258;-43
2023/12/23 01:04:45;;;;;;;0.87;0.23;;;;;;;1.55;100.00;95925.91;6126619;29;20205;-42
2023/12/23 01:07:47;;;;;;;0.17;0.17;;;;;;;1.59;100.00;95936.75;6139759;28;20193;-42
2023/12/23 01:10:49;;;;;;;0.20;0.20;;;;;;;1.54;100.00;95943.50;6122562;29;20239;-41
2023/12/23 01:13:52;;;;;;;1.27;0.20;;;;;;;1.42;100.00;95936.63;6136142;28;20212;-43
2023/12/23 01:16:54;;;;;;;0.20;0.20;;;;;;;1.36;100.00;95946.19;6137093;28;20207;-42
2023/12/23 01:19:56;;;;;;;0.20;0.20;;;;;;;1.26;100.00;95944.13;6132785;28;20201;-43
2023/12/23 01:22:58;;;;;;;0.20;0.20;;;;;;;1.28;100.00;95970.13;6136146;28;20742;-42
2023/12/23 01:26:00;;;;;;;0.20;0.20;;;;;;;1.23;100.00;95962.97;6130301;28;20197;-42
2023/12/23 01:29:03;;;;;;;0.53;0.30;;;;;;;1.22;100.00;95960.53;6128007;29;20199;-42
2023/12/23 01:32:05;;;;;;;0.30;0.30;;;;;;;1.27;100.00;95961.47;6129463;28;20221;-42
2023/12/23 01:35:08;;;;;;;0.97;0.40;;;;;;;1.25;100.00;95971.38;6130547;28;20284;-41
2023/12/23 01:38:10;;;;;;;0.43;0.30;;;;;;;1.24;100.00;95982.13;6123213;29;20859;-42
2023/12/23 01:41:12;;;;;;;0.23;0.20;;;;;;;1.23;100.00;95998.84;6129778;28;20192;-42
2023/12/23 01:44:14;;;;;;;0.40;0.30;;;;;;;1.21;100.00;96000.91;6124091;29;20196;-43
2023/12/23 01:47:16;;;;;;;0.27;0.27;;;;;;;1.20;100.00;95978.34;6123213;28;20290;-42
2023/12/23 01:50:22;;;;;;;0.37;0.30;;;;;;;1.20;100.00;96009.81;6131548;28;20237;-41
2023/12/23 01:53:25;;;;;;;1.13;0.60;;;;;;;1.06;100.00;95993.44;6138534;28;20206;-41
2023/12/23 01:56:29;;;;;;;1.27;0.73;;;;;;;1.07;100.00;95997.66;6130154;28;20215;-42
2023/12/23 01:59:31;;;;;;;1.40;0.90;;;;;;;0.82;100.00;95976.03;6115295;29;20199;-41
2023/12/23 02:02:38;;;;;;;1.43;0.80;;;;;;;0.91;100.00;96011.41;6134130;28;20207;-42
2023/12/23 02:05:41;;;;;;;0.77;0.77;;;;;;;0.85;100.00;96031.44;6122510;29;20210;-42
2023/12/23 02:08:44;;;;;;;0.70;0.70;;;;;;;0.75;100.00;96045.06;6133586;28;20192;-41
2023/12/23 02:11:57;;;;;;;1.77;0.73;;;;;;;0.68;100.00;96040.91;6126858;28;20389;-42
2023/12/23 02:15:09;;;;;;;2.30;0.77;;;;;;;0.60;100.00;96039.41;6124067;29;20293;-42
2023/12/23 02:18:11;;;;;;;1.03;0.80;;;;;;;0.58;100.00;96041.44;6125310;28;20265;-41
2023/12/23 02:21:15;;;;;;;1.97;1.20;;;;;;;0.54;100.00;96037.63;6107840;28;20198;-41
2023/12/23 02:24:18;;;;;;;1.53;0.80;;;;;;;0.51;100.00;96040.72;6138720;29;20203;-41
2023/12/23 02:27:27;;;;;;;1.20;1.03;;;;;;;0.50;100.00;96042.53;6125247;29;20550;-42
2023/12/23 02:30:30;;;;;;;1.33;1.20;;;;;;;0.38;100.00;96039.03;6138511;28;20580;-43
2023/12/23 02:33:34;;;;;;;1.40;1.30;;;;;;;0.44;100.00;96040.81;6132569;28;20232;-42
2023/12/23 02:36:38;;;;;;;1.57;1.17;;;;;;;0.45;100.00;96045.00;6122813;29;20341;-43
2023/12/23 02:39:40;;;;;;;1.20;1.10;;;;;;;0.40;100.00;96046.69;6138965;28;20204;-41
2023/12/23 02:42:42;;;;;;;2.70;1.20;;;;;;;0.31;100.00;96050.59;6127812;28;20198;-41
2023/12/23 02:45:44;;;;;;;1.47;1.13;;;;;;;0.32;100.00;96060.84;6141388;28;20209;-41
2023/12/23 02:48:47;;;;;;;2.23;1.40;;;;;;;0.32;100.00;96055.63;6140166;29;20249;-41
2023/12/23 02:51:49;;;;;;;1.43;1.10;;;;;;;0.41;100.00;96067.41;6123607;29;20670;-41
2023/12/23 02:54:52;;;;;;;2.47;1.80;;;;;;;0.31;100.00;96050.59;6125141;28;20210;-41
2023/12/23 02:57:54;;;;;;;2.60;1.37;;;;;;;0.31;100.00;96058.47;6119574;29;20195;-42
2023/12/23 03:00:56;;;;;;;1.93;1.63;;;;;;;0.34;100.00;96058.81;6131960;28;20203;-42
2023/12/23 03:03:59;;;;;;;1.83;0.80;;;;;;;0.45;100.00;96059.94;6127135;28;20199;-41
2023/12/23 03:07:01;;;;;;;2.10;0.53;;;;;;;0.59;100.00;96050.09;6118371;28;20676;-44
2023/12/23 03:10:03;;;;;;;1.40;0.70;;;;;;;0.66;100.00;96045.59;6130273;28;20543;-42
2023/12/23 03:13:06;;;;;;;1.07;0.90;;;;;;;0.68;100.00;96036.47;6127990;28;20234;-42
2023/12/23 03:16:17;;;;;;;0.90;0.80;;;;;;;0.84;100.00;96063.09;6114833;28;20215;-41
2023/12/23 03:19:19;;;;;;;0.83;0.70;;;;;;;0.88;100.00;96032.81;6132736;28;20209;-42
2023/12/23 03:22:21;;;;;;;0.60;0.57;;;;;;;0.84;100.00;96021.16;6128012;28;20187;-41
2023/12/23 03:25:24;;;;;;;0.50;0.50;;;;;;;1.13;100.00;96017.75;6129637;28;20209;-41
2023/12/23 03:28:26;;;;;;;0.30;0.30;;;;;;;1.35;100.00;96035.63;6118231;29;20757;-41
2023/12/23 03:31:28;;;;;;;0.30;0.30;;;;;;;1.33;100.00;96037.66;6126759;28;20212;-42
2023/12/23 03:34:30;;;;;;;0.43;0.20;;;;;;;1.44;100.00;96027.22;6134217;28;20199;-42
2023/12/23 03:37:32;;;;;;;0.37;0.23;;;;;;;1.56;100.00;96037.72;6122443;28;20213;-41
2023/12/23 03:40:35;;;;;;;0.10;0.10;;;;;;;2.03;100.00;96035.97;6134648;28;20262;-42
2023/12/23 03:43:38;;;;;;;0.23;0.10;;;;;;;1.94;100.00;96016.31;6136155;28;20848;-42
2023/12/23 03:46:40;;;;;;;0.10;0.10;;;;;;;2.73;100.00;96021.16;6135844;28;20702;-41
2023/12/23 03:49:43;;;;;;;0.00;0.00;;;;;;;3.23;100.00;96039.72;6135355;29;20265;-42
2023/12/23 03:52:45;;;;;;;0.37;0.10;;;;;;;3.28;100.00;96046.91;6130307;28;20188;-42
2023/12/23 03:55:48;;;;;;;0.07;0.07;;;;;;;3.19;100.00;96049.13;6134229;28;20208;-42
2023/12/23 03:58:51;;;;;;;0.10;0.10;;;;;;;3.38;100.00;96035.78;6131820;28;20278;-42
2023/12/23 04:01:53;;;;;;;0.10;0.10;;;;;;;3.44;100.00;96038.25;6120919;29;20260;-43
2023/12/23 04:04:56;;;;;;;0.30;0.20;;;;;;;3.48;100.00;96035.94;6134289;28;20691;-42
2023/12/23 04:07:58;;;;;;;1.80;0.20;;;;;;;3.54;100.00;96062.09;6137093;28;20192;-43
2023/12/23 04:11:00;;;;;;;0.10;0.10;;;;;;;3.60;100.00;96049.84;6116997;28;20249;-43
2023/12/23 04:14:03;;;;;;;1.70;0.10;;;;;;;3.34;100.00;96059.91;6116856;29;20577;-43
2023/12/23 04:17:06;;;;;;;0.13;0.10;;;;;;;3.56;100.00;96067.16;6119763;29;20691;-42
2023/12/23 04:20:09;;;;;;;0.30;0.00;;;;;;;3.67;100.00;96081.28;6135767;28;20345;-43
2023/12/23 04:23:11;;;;;;;0.60;0.10;;;;;;;4.12;100.00;96079.41;6127386;29;20198;-42
2023/12/23 04:26:14;;;;;;;0.00;0.00;;;;;;;4.73;93.42;96110.31;6128115;29;20294;-44
2023/12/23 04:29:17;;;;;;;0.10;0.10;;;;;;;4.50;97.66;96116.63;6131630;28;20204;-43
2023/12/23 04:32:19;;;;;;;0.10;0.10;;;;;;;4.98;89.58;96109.91;6125872;28;20780;-43
2023/12/23 04:35:21;;;;;;;0.30;0.10;;;;;;;4.82;89.66;96141.31;6131017;28;20213;-43
2023/12/23 04:38:24;;;;;;;0.10;0.10;;;;;;;5.04;85.34;96157.22;6129406;29;20193;-43
2023/12/23 04:41:27;;;;;;;0.10;0.10;;;;;;;4.95;87.23;96149.94;6118902;29;20831;-43
2023/12/23 04:44:30;;;;;;;0.30;0.20;;;;;;;4.89;86.06;96114.78;6135031;28;20194;-44
2023/12/23 04:47:32;;;;;;;0.30;0.10;;;;;;;4.77;92.20;96165.00;6137334;28;20205;-43
2023/12/23 04:50:34;;;;;;;0.10;0.10;;;;;;;5.05;84.64;96165.91;6136638;28;20226;-43
2023/12/23 04:53:37;;;;;;;0.20;0.20;;;;;;;4.91;88.80;96176.03;6120377;29;20255;-43
2023/12/23 04:56:40;;;;;;;0.00;0.00;;;;;;;4.76;88.26;96175.81;6116621;29;20212;-42
2023/12/23 04:59:42;;;;;;;0.10;0.10;;;;;;;5.02;85.65;96227.91;6120235;28;20283;-44
2023/12/23 05:02:44;;;;;;;1.40;0.20;;;;;;;5.28;79.85;96186.81;6125707;28;20578;-43
2023/12/23 05:05:46;;;;;;;0.10;0.10;;;;;;;4.99;86.25;96283.81;6118899;29;20199;-43
2023/12/23 05:08:49;;;;;;;0.10;0.10;;;;;;;3.92;96.27;96315.38;6120674;29;20522;-44
2023/12/23 05:11:51;;;;;;;0.63;0.20;;;;;;;3.22;100.00;96324.16;6131860;28;20231;-44
2023/12/23 05:14:53;;;;;;;0.63;0.10;;;;;;;2.68;100.00;96333.91;6125223;29;20216;-43
2023/12/23 05:17:55;;;;;;;0.00;0.00;;;;;;;2.50;100.00;96351.31;6127415;29;20201;-42
2023/12/23 05:20:58;;;;;;;0.10;0.10;;;;;;;2.33;100.00;96361.66;6135406;29;20251;-42
2023/12/23 05:24:01;;;;;;;0.10;0.10;;;;;;;2.27;100.00;96351.25;6131549;28;20211;-43
2023/12/23 05:27:05;;;;;;;0.27;0.10;;;;;;;2.42;100.00;96356.13;6133934;28;20197;-42
2023/12/23 05:30:09;;;;;;;0.83;0.17;;;;;;;2.47;100.00;96367.56;6134141;29;20223;-42
2023/12/23 05:33:11;;;;;;;0.10;0.10;;;;;;;2.34;100.00;96372.97;6119059;29;20258;-42
2023/12/23 05:36:13;;;;;;;0.30;0.20;;;;;;;2.37;100.00;96396.19;6132473;28;20327;-43
2023/12/23 05:39:16;;;;;;;0.10;0.10;;;;;;;2.39;100.00;96381.00;6134617;28;20208;-42
2023/12/23 05:42:18;;;;;;;0.50;0.10;;;;;;;2.23;100.00;96369.28;6133658;28;20232;-45
2023/12/23 05:45:21;;;;;;;0.10;0.10;;;;;;;2.31;100.00;96371.59;6121787;29;20217;-43
2023/12/23 05:48:23;;;;;;;1.23;0.30;;;;;;;2.41;100.00;96380.75;6129038;28;20873;-45
2023/12/23 05:51:25;;;;;;;0.60;0.20;;;;;;;2.28;100.00;96393.06;6130643;28;20240;-43
2023/12/23 05:54:27;;;;;;;1.63;0.20;;;;;;;2.73;100.00;96392.69;6134521;28;20231;-42
2023/12/23 05:57:30;;;;;;;0.10;0.10;;;;;;;2.48;100.00;96399.91;6130206;29;20294;-41
2023/12/23 06:00:32;;;;;;;1.03;0.10;;;;;;;2.32;100.00;96410.00;6130849;28;20199;-43
2023/12/23 06:03:34;;;;;;;0.70;0.13;;;;;;;2.38;100.00;96418.03;6130694;28;20191;-42
2023/12/23 06:06:36;;;;;;;0.30;0.10;;;;;;;2.27;100.00;96432.72;6134517;28;20571;-43
2023/12/23 06:09:39;;;;;;;0.00;0.00;;;;;;;2.26;100.00;96417.94;6133016;28;20266;-43
2023/12/23 06:12:41;;;;;;;0.57;0.20;;;;;;;2.35;100.00;96431.59;6124463;28;20231;-42
2023/12/23 06:15:43;;;;;;;0.30;0.20;;;;;;;2.48;100.00;96432.25;6126143;28;20199;-43
2023/12/23 06:18:45;;;;;;;0.77;0.10;;;;;;;2.47;99.98;96438.53;6115160;28;20682;-42
2023/12/23 06:21:48;;;;;;;0.70;0.23;;;;;;;2.50;100.00;96432.00;6127176;29;20262;-43
2023/12/23 06:24:50;;;;;;;0.37;0.10;;;;;;;2.37;100.00;96446.13;6128138;28;20206;-43
2023/12/23 06:27:52;;;;;;;0.80;0.20;;;;;;;2.63;100.00;96459.97;6124808;28;20739;-42
2023/12/23 06:30:54;;;;;;;1.37;0.20;;;;;;;2.93;94.49;96471.31;6124842;28;20685;-43
2023/12/23 06:33:56;;;;;;;0.10;0.10;;;;;;;2.91;93.76;96459.41;6132842;28;20582;-43
2023/12/23 06:36:59;;;;;;;0.10;0.10;;;;;;;2.87;93.50;96476.66;6138370;28;20313;-42
2023/12/23 06:40:01;;;;;;;0.20;0.20;;;;;;;2.68;97.20;96494.28;6114153;28;20250;-43
2023/12/23 06:43:03;;;;;;;0.30;0.20;;;;;;;2.71;96.36;96507.81;6133085;28;20197;-43
2023/12/23 06:46:25;;;;;;;2.13;0.30;;;;;;;2.81;91.21;96505.47;6131706;28;20782;-42
2023/12/23 06:49:28;;;;;;;0.97;0.20;;;;;;;2.78;93.85;96511.16;6132285;28;20204;-43
2023/12/23 06:52:30;;;;;;;0.23;0.17;;;;;;;2.98;88.53;96518.00;6130584;29;20329;-43
2023/12/23 06:55:32;;;;;;;0.10;0.10;;;;;;;2.82;91.35;96516.78;6134232;28;20742;-41
2023/12/23 06:58:34;;;;;;;0.80;0.10;;;;;;;3.03;87.64;96537.34;6132801;28;20204;-42
2023/12/23 07:01:37;;;;;;;1.70;0.30;;;;;;;3.02;87.07;96534.94;6133441;28;20780;-43
2023/12/23 07:04:40;;;;;;;0.37;0.30;;;;;;;2.82;90.86;96548.34;6137298;28;20206;-42
2023/12/23 07:07:43;;;;;;;0.67;0.30;;;;;;;2.76;91.37;96530.81;6136906;28;20336;-43
2023/12/23 07:10:45;;;;;;;0.90;0.20;;;;;;;2.59;94.54;96538.47;6133505;28;20700;-42
2023/12/23 07:13:47;;;;;;;1.80;0.20;;;;;;;2.66;92.35;96554.16;6132869;28;20580;-43
2023/12/23 07:16:49;;;;;;;0.73;0.23;;;;;;;2.96;87.61;96535.84;6121873;29;20291;-42
2023/12/23 07:19:52;;;;;;;1.60;0.30;;;;;;;2.75;90.04;96558.09;6137842;28;20352;-41
2023/12/23 07:22:54;;;;;;;0.53;0.30;;;;;;;2.59;93.98;96554.25;6135696;29;20194;-43
2023/12/23 07:25:57;;;;;;;0.70;0.30;;;;;;;2.84;90.44;96559.44;6131516;28;20202;-44
2023/12/23 07:29:00;;;;;;;0.30;0.30;;;;;;;2.79;89.88;96578.50;6129999;28;20665;-43
2023/12/23 07:32:02;;;;;;;0.93;0.23;;;;;;;2.79;90.57;96596.91;6128749;28;20688;-42
2023/12/23 07:35:04;;;;;;;0.70;0.30;;;;;;;2.78;90.41;96586.59;6131106;28;20198;-42
2023/12/23 07:38:06;;;;;;;0.40;0.27;;;;;;;2.55;93.50;96579.34;6131336;28;20342;-43
2023/12/23 07:41:09;;;;;;;1.47;0.30;;;;;;;2.62;92.67;96574.84;6132721;29;20274;-42
2023/12/23 07:44:11;;;;;;;0.97;0.23;;;;;;;2.46;96.08;96597.22;6137680;28;20556;-42
2023/12/23 07:47:13;;;;;;;0.73;0.30;;;;;;;2.31;97.76;96589.69;6139019;29;20227;-42
2023/12/23 07:50:15;;;;;;;0.97;0.30;;;;;;;2.18;100.00;96597.69;6135883;28;20199;-44
2023/12/23 07:53:17;;;;;;;1.73;0.37;;;;;;;2.13;100.00;96596.75;6137573;28;20266;-42
2023/12/23 07:56:19;;;;;;;0.90;0.33;;;;;;;2.09;100.00;96606.88;6127013;28;20218;-43
2023/12/23 07:59:22;;;;;;;2.13;0.73;;;;;;;1.96;100.00;96620.88;6109859;28;20193;-43
2023/12/23 08:02:24;;;;;;;2.23;0.40;;;;;;;1.97;100.00;96598.06;6131418;28;20197;-44
2023/12/23 08:05:26;;;;;;;1.43;0.77;;;;;;;2.03;100.00;96612.97;6127944;28;20742;-45
2023/12/23 08:08:28;;;;;;;1.27;0.30;;;;;;;1.83;100.00;96625.47;6129723;28;20671;-45
2023/12/23 08:11:31;;;;;;;1.40;0.50;;;;;;;1.70;100.00;96628.97;6131454;28;20247;-43
2023/12/23 08:14:33;;;;;;;1.37;0.50;;;;;;;1.59;100.00;96617.31;6132062;28;20205;-43
2023/12/23 08:17:36;;;;;;;1.53;0.40;;;;;;;1.50;100.00;96626.44;6134006;28;20197;-44
2023/12/23 08:20:38;;;;;;;1.57;0.40;;;;;;;1.43;100.00;96615.16;6138871;28;20209;-43
2023/12/23 08:23:40;;;;;;;1.03;0.40;;;;;;;1.05;100.00;96571.38;6132135;28;20189;-42
2023/12/23 08:26:42;;;;;;;1.50;0.40;;;;;;;1.20;100.00;96615.69;6134959;28;20622;-42
2023/12/23 08:29:46;;;;;;;0.30;0.30;;;;;;;1.15;100.00;96647.78;6121693;28;20217;-43
2023/12/23 08:32:48;;;;;;;1.37;0.43;;;;;;;1.09;100.00;96606.66;6128803;29;20294;-44
2023/12/23 08:35:50;;;;;;;1.53;0.53;;;;;;;1.17;100.00;96622.16;6139155;28;20206;-42
2023/12/23 08:38:54;;;;;;;0.87;0.30;;;;;;;1.09;100.00;96625.03;6132615;28;20207;-44
2023/12/23 08:41:56;;;;;;;2.10;0.60;;;;;;;1.06;100.00;96617.56;6130938;28;20194;-42
2023/12/23 08:44:58;;;;;;;2.70;0.47;;;;;;;1.28;100.00;96623.31;6130444;28;20687;-42
2023/12/23 08:48:00;;;;;;;1.80;0.40;;;;;;;1.10;100.00;96612.72;6130897;28;20211;-42
2023/12/23 08:51:03;;;;;;;1.03;0.30;;;;;;;1.02;100.00;96617.16;6137273;28;20278;-45
2023/12/23 08:54:05;;;;;;;0.97;0.50;;;;;;;1.09;100.00;96611.09;6126370;28;20203;-42
2023/12/23 08:57:07;;;;;;;3.53;1.37;;;;;;;1.19;100.00;96607.03;6122501;28;20663;-43
2023/12/23 09:00:10;;;;;;;0.90;0.43;;;;;;;0.86;100.00;96612.38;6136327;29;20626;-42
2023/12/23 09:03:12;;;;;;;0.97;0.30;;;;;;;0.73;100.00;96618.47;6142997;28;20205;-41
2023/12/23 09:06:14;;;;;;;1.17;0.40;;;;;;;0.60;100.00;96610.66;6142297;28;20224;-43
2023/12/23 09:09:16;;;;;;;0.97;0.40;;;;;;;0.51;100.00;96615.28;6143341;28;20731;-43
2023/12/23 09:12:19;;;;;;;1.37;0.30;;;;;;;0.43;100.00;96607.63;6138801;28;20301;-44
2023/12/23 09:15:23;;;;;;;1.47;0.40;;;;;;;0.38;100.00;96623.16;6127823;28;20207;-44
2023/12/23 09:18:25;;;;;;;1.83;0.30;;;;;;;0.37;100.00;96628.63;6135760;28;20290;-45
2023/12/23 09:21:27;;;;;;;1.20;0.40;;;;;;;0.19;100.00;96608.25;6140241;28;20191;-43
2023/12/23 09:24:29;;;;;;;1.40;0.30;;;;;;;0.45;100.00;96618.72;6127660;29;20200;-43
2023/12/23 09:27:31;;;;;;;1.03;0.30;;;;;;;0.49;100.00;96633.03;6127962;28;20704;-44
2023/12/23 09:30:34;;;;;;;0.63;0.40;;;;;;;0.40;100.00;96630.84;6137682;28;20207;-44
2023/12/23 09:33:38;;;;;;;2.67;0.43;;;;;;;0.32;100.00;96631.84;6128444;28;20700;-44
2023/12/23 09:36:41;;;;;;;0.30;0.30;;;;;;;0.20;100.00;96623.78;6133970;28;20203;-44
2023/12/23 09:39:43;;;;;;;0.60;0.40;;;;;;;0.18;100.00;96614.50;6127015;28;20195;-44
2023/12/23 09:42:45;;;;;;;1.17;0.40;;;;;;;0.10;100.00;96610.31;6131717;28;20750;-43
2023/12/23 09:45:49;;;;;;;0.50;0.30;;;;;;;0.06;100.00;96601.25;6129356;28;20564;-43
2023/12/23 09:48:51;;;;;;;0.20;0.20;;;;;;;-0.12;100.00;96567.81;6126227;29;20206;-43
2023/12/23 09:51:55;;;;;;;0.60;0.20;;;;;;;0.08;100.00;96583.50;6123560;29;20691;-45
2023/12/23 09:54:58;;;;;;;0.43;0.20;;;;;;;0.10;100.00;96576.25;6133958;28;20192;-44
2023/12/23 09:58:03;;;;;;;0.93;0.50;;;;;;;0.12;100.00;96565.59;6122655;29;20226;-44
2023/12/23 10:01:06;;;;;;;1.43;0.80;;;;;;;0.11;100.00;96571.84;6129549;28;20207;-44
2023/12/23 10:04:08;;;;;;;1.53;0.93;;;;;;;0.11;100.00;96556.13;6119811;29;20680;-43
2023/12/23 10:07:10;;;;;;;1.30;0.80;;;;;;;0.08;100.00;96536.38;6136392;28;20278;-45
2023/12/23 10:10:12;;;;;;;1.20;1.00;;;;;;;0.10;100.00;96534.38;6132614;28;20842;-43
2023/12/23 10:13:16;;;;;;;2.10;0.70;;;;;;;0.11;100.00;96535.19;6130792;28;21075;-44
2023/12/23 10:16:18;;;;;;;0.60;0.60;;;;;;;0.09;100.00;96526.69;6130430;28;20203;-44
2023/12/23 10:19:21;;;;;;;0.27;0.27;;;;;;;0.13;100.00;96530.53;6131351;28;20207;-44
2023/12/23 10:22:26;;;;;;;0.30;0.30;;;;;;;0.13;100.00;96515.63;6129344;28;20190;-44
2023/12/23 10:25:30;;;;;;;0.20;0.20;;;;;;;0.04;100.00;96500.31;6132859;28;20202;-44
2023/12/23 10:28:35;;;;;;;0.40;0.30;;;;;;;0.12;100.00;96498.31;6133476;28;20195;-43
2023/12/23 10:31:38;;;;;;;0.33;0.33;;;;;;;0.16;100.00;96493.47;6121106;29;20226;-44
2023/12/23 10:34:44;;;;;;;0.30;0.30;;;;;;;0.18;100.00;96480.97;6130834;28;20202;-44
2023/12/23 10:37:49;;;;;;;0.37;0.30;;;;;;;0.18;100.00;96481.75;6125252;28;20722;-44
2023/12/23 10:40:57;;;;;;;0.20;0.20;;;;;;;0.19;100.00;96474.72;6130452;29;20577;-43
2023/12/23 10:44:00;;;;;;;0.20;0.20;;;;;;;0.19;100.00;96465.03;6128503;28;20668;-43
2023/12/23 10:47:04;;;;;;;0.20;0.20;;;;;;;0.08;100.00;96438.69;6132364;28;20699;-44
2023/12/23 10:50:08;;;;;;;0.30;0.30;;;;;;;0.07;100.00;96424.81;6126678;29;20598;-45
2023/12/23 10:53:14;;;;;;;1.40;0.50;;;;;;;0.24;100.00;96430.38;6131075;28;20212;-43
2023/12/23 10:56:17;;;;;;;0.60;0.60;;;;;;;0.23;100.00;96426.16;6132157;28;20210;-44
2023/12/23 10:59:19;;;;;;;0.70;0.60;;;;;;;0.22;100.00;96416.69;6139205;29;20207;-43
2023/12/23 11:02:34;;;;;;;2.93;0.70;;;;;;;0.18;100.00;96392.72;6143738;28;20183;-44
2023/12/23 11:05:40;;;;;;;1.23;1.03;;;;;;;0.20;100.00;96413.50;6126578;29;20192;-44
2023/12/23 11:08:43;;;;;;;1.10;1.00;;;;;;;0.19;100.00;96398.75;6137099;28;20211;-43
2023/12/23 11:11:46;;;;;;;1.20;1.10;;;;;;;0.20;100.00;96390.72;6119891;28;20246;-45
2023/12/23 11:14:48;;;;;;;1.90;1.57;;;;;;;0.21;100.00;96376.63;6124378;28;20346;-44
2023/12/23 11:17:54;;;;;;;3.53;2.20;;;;;;;0.21;100.00;96381.03;6127203;29;20195;-44
2023/12/23 11:20:57;;;;;;;2.17;1.77;;;;;;;0.18;100.00;96361.31;6137018;28;20191;-43
2023/12/23 11:23:59;;;;;;;3.53;2.40;;;;;;;0.17;100.00;96354.47;6126325;28;20704;-43
2023/12/23 11:27:02;;;;;;;2.90;1.83;;;;;;;0.18;100.00;96345.59;6133193;28;20206;-43
2023/12/23 11:30:05;;;;;;;1.70;1.47;;;;;;;0.18;100.00;96322.03;6126120;28;20945;-43
2023/12/23 11:33:07;;;;;;;2.13;1.80;;;;;;;0.17;100.00;96323.03;6126080;28;20388;-43
2023/12/23 11:36:09;;;;;;;1.67;1.00;;;;;;;0.18;100.00;96311.56;6134291;28;20329;-43
2023/12/23 11:39:13;;;;;;;1.53;1.20;;;;;;;0.16;100.00;96308.34;6129404;28;20694;-44
2023/12/23 11:42:15;;;;;;;0.77;0.50;;;;;;;-0.03;100.00;96270.00;6127514;28;20197;-44
2023/12/23 11:45:18;;;;;;;0.20;0.20;;;;;;;0.18;100.00;96272.28;6129997;28;20579;-43
2023/12/23 11:48:22;;;;;;;0.30;0.30;;;;;;;0.21;100.00;96258.78;6129195;28;20199;-43
2023/12/23 11:51:24;;;;;;;0.30;0.30;;;;;;;0.21;100.00;96261.38;6129149;28;20289;-44
2023/12/23 11:54:27;;;;;;;0.87;0.43;;;;;;;0.02;100.00;96227.47;6131923;28;20590;-43
2023/12/23 11:57:30;;;;;;;0.40;0.37;;;;;;;0.01;100.00;96176.13;6131144;28;20191;-43
2023/12/23 12:00:36;;;;;;;1.13;0.20;;;;;;;0.25;100.00;96235.59;6131584;28;20230;-43
2023/12/23 12:03:38;;;;;;;0.60;0.57;;;;;;;0.62;100.00;96207.69;6131922;29;20192;-43
2023/12/23 12:06:40;;;;;;;0.37;0.37;;;;;;;0.83;100.00;96218.78;6135552;28;20213;-43
2023/12/23 12:09:43;;;;;;;0.50;0.30;;;;;;;1.04;100.00;96218.38;6131884;28;20613;-44
2023/12/23 12:12:45;;;;;;;0.40;0.40;;;;;;;1.22;100.00;96234.09;6131864;28;20274;-42
2023/12/23 12:15:47;;;;;;;0.20;0.20;;;;;;;1.85;100.00;96208.53;6132566;28;20229;-43
2023/12/23 12:18:50;;;;;;;0.10;0.10;;;;;;;1.75;100.00;96181.00;6129623;28;20211;-43
2023/12/23 12:21:52;;;;;;;0.37;0.30;;;;;;;2.02;100.00;96185.88;6131428;28;20728;-43
2023/12/23 12:24:54;;;;;;;0.10;0.10;;;;;;;4.00;100.00;96183.28;6118452;28;20695;-42
2023/12/23 12:27:58;;;;;;;0.27;0.17;;;;;;;4.96;100.00;96172.66;6134632;28;20217;-42
2023/12/23 12:31:13;;;;;;;0.10;0.10;;;;;;;4.81;100.00;96160.84;6133066;28;20195;-43
2023/12/23 12:34:15;;;;;;;0.37;0.20;;;;;;;4.62;100.00;96152.38;6134659;28;20218;-41
2023/12/23 12:37:17;;;;;;;1.70;0.20;;;;;;;5.15;100.00;96172.13;6130721;28;20700;-43
2023/12/23 12:40:19;;;;;;;0.10;0.10;;;;;;;5.38;100.00;96172.94;6125462;29;20652;-42
2023/12/23 12:43:22;;;;;;;0.00;0.00;;;;;;;5.61;100.00;96126.97;6131564;28;20278;-46
2023/12/23 12:46:24;;;;;;;0.10;0.10;;;;;;;5.60;100.00;96167.66;6135694;28;20199;-45
2023/12/23 12:49:27;;;;;;;0.00;0.00;;;;;;;5.51;100.00;96175.19;6131306;28;20239;-43
2023/12/23 12:52:30;;;;;;;0.20;0.10;;;;;;;5.29;100.00;96172.56;6130843;28;20290;-46
2023/12/23 12:55:32;;;;;;;0.27;0.00;;;;;;;5.51;100.00;96175.19;6132323;28;20199;-44
2023/12/23 12:58:34;;;;;;;0.10;0.10;;;;;;;5.71;100.00;96137.66;6129403;28;20652;-43
2023/12/23 13:01:37;;;;;;;0.10;0.10;;;;;;;5.69;100.00;96161.69;6127729;28;20208;-46
2023/12/23 13:04:40;;;;;;;0.30;0.00;;;;;;;5.55;100.00;96146.47;6125815;28;20600;-46
2023/12/23 13:07:42;;;;;;;0.53;0.10;;;;;;;5.80;100.00;96141.44;6139336;28;20688;-45
2023/12/23 13:10:44;;;;;;;0.10;0.10;;;;;;;5.63;100.00;96146.81;6133117;28;20234;-45
2023/12/23 13:13:49;;;;;;;0.00;0.00;;;;;;;5.76;100.00;96134.25;6135808;28;20283;-44
2023/12/23 13:16:51;;;;;;;0.10;0.10;;;;;;;5.93;100.00;96142.94;6136777;28;20287;-45
2023/12/23 13:19:53;;;;;;;0.10;0.10;;;;;;;6.24;100.00;96149.28;6137415;28;20203;-43
2023/12/23 13:22:55;;;;;;;0.10;0.10;;;;;;;6.24;100.00;96132.63;6135923;28;20622;-46
2023/12/23 13:25:58;;;;;;;0.20;0.20;;;;;;;6.08;100.00;96150.22;6131588;28;20279;-44
2023/12/23 13:29:00;;;;;;;0.10;0.10;;;;;;;6.34;100.00;96130.84;6128720;28;20203;-45
2023/12/23 13:32:02;;;;;;;0.57;0.10;;;;;;;6.51;100.00;96119.34;6117648;29;20212;-46
2023/12/23 13:35:05;;;;;;;0.23;0.20;;;;;;;6.42;100.00;96105.81;6132725;28;20202;-43
2023/12/23 13:38:07;;;;;;;0.20;0.20;;;;;;;6.26;100.00;96130.53;6133222;28;20209;-45
2023/12/23 13:41:10;;;;;;;0.77;0.20;;;;;;;6.52;100.00;96105.06;6135924;28;20239;-43
2023/12/23 13:44:12;;;;;;;0.73;0.20;;;;;;;6.26;100.00;96127.91;6135805;28;20241;-44
2023/12/23 13:47:14;;;;;;;1.60;0.20;;;;;;;6.32;100.00;96106.53;6134711;28;20251;-43
2023/12/23 13:50:16;;;;;;;0.20;0.20;;;;;;;6.26;100.00;96123.41;6135534;28;20201;-43
2023/12/23 13:53:18;;;;;;;0.40;0.20;;;;;;;6.28;100.00;96123.16;6138509;28;20726;-43
2023/12/23 13:56:20;;;;;;;0.10;0.10;;;;;;;6.27;100.00;96150.66;6139484;28;20200;-44
2023/12/23 13:59:22;;;;;;;1.23;0.10;;;;;;;6.39;100.00;96125.59;6134767;28;20194;-43
2023/12/23 14:02:25;;;;;;;0.27;0.10;;;;;;;6.60;100.00;96141.63;6130905;28;20190;-44
2023/12/23 14:05:27;;;;;;;0.10;0.10;;;;;;;6.86;99.69;96124.88;6132372;29;20352;-44
2023/12/23 14:08:29;;;;;;;0.27;0.10;;;;;;;6.71;100.00;96152.03;6132852;28;20196;-44
2023/12/23 14:11:32;;;;;;;0.70;0.23;;;;;;;6.50;100.00;96126.47;6134103;28;20229;-44
2023/12/23 14:14:34;;;;;;;0.10;0.10;;;;;;;6.33;100.00;96176.06;6135230;28;20299;-45
2023/12/23 14:17:36;;;;;;;0.40;0.10;;;;;;;6.80;100.00;96148.91;6135057;28;20208;-45
2023/12/23 14:20:38;;;;;;;0.17;0.17;;;;;;;6.71;100.00;96130.06;6134576;28;20239;-46